Time;durP1;ratioP1;P1;durP2;ratioP2;P2;SDS_P1;SDS_P2;PMS_P1;PMS_P2;Temp;Humidity;BMP_temperature;BMP_pressure;BME280_temperature;BME280_humidity;BME280_pressure;Samples;Min_cycle;Max_cycle;Signal;HPM_P1;HPM_P2
2023/09/26 00:02:15;;;;;;;8.40;6.53;;;;;;;;;;5008807;28;20396;-70
2023/09/26 00:04:41;;;;;;;7.88;6.05;;;;;;;;;;5001067;28;20041;-70
2023/09/26 00:07:08;;;;;;;7.90;5.70;;;;;;;;;;5013480;28;20065;-70
2023/09/26 00:09:35;;;;;;;8.43;6.25;;;;;;;;;;5010417;28;20554;-70
2023/09/26 00:12:02;;;;;;;9.88;7.00;;;;;;;;;;5000432;28;20050;-69
2023/09/26 00:14:29;;;;;;;7.28;6.35;;;;;;;;;;5016413;28;20083;-69
2023/09/26 00:16:55;;;;;;;10.43;6.75;;;;;;;;;;5012128;28;20579;-70
2023/09/26 00:19:21;;;;;;;9.13;6.88;;;;;;;;;;5009198;28;20116;-70
2023/09/26 00:21:47;;;;;;;8.60;6.43;;;;;;;;;;5009788;28;20443;-70
2023/09/26 00:24:13;;;;;;;8.75;6.70;;;;;;;;;;5012094;28;20034;-69
2023/09/26 00:26:39;;;;;;;10.30;7.53;;;;;;;;;;4997613;28;20065;-69
2023/09/26 00:29:05;;;;;;;9.90;7.63;;;;;;;;;;5014239;28;20073;-69
2023/09/26 00:31:31;;;;;;;12.02;8.13;;;;;;;;;;4998248;28;20461;-69
2023/09/26 00:33:57;;;;;;;10.55;8.40;;;;;;;;;;4994335;28;20053;-69
2023/09/26 00:36:24;;;;;;;9.20;7.40;;;;;;;;;;5014246;28;20408;-69
2023/09/26 00:38:50;;;;;;;9.15;6.95;;;;;;;;;;5010925;28;20087;-69
2023/09/26 00:41:16;;;;;;;11.75;8.30;;;;;;;;;;5015012;28;20036;-69
2023/09/26 00:43:42;;;;;;;11.38;7.93;;;;;;;;;;5022181;28;20033;-69
2023/09/26 00:46:09;;;;;;;9.52;8.35;;;;;;;;;;4999841;28;20041;-69
2023/09/26 00:48:36;;;;;;;11.93;8.70;;;;;;;;;;5003883;28;20038;-69
2023/09/26 00:51:02;;;;;;;13.23;9.40;;;;;;;;;;5009562;28;20046;-69
2023/09/26 00:53:29;;;;;;;13.05;9.93;;;;;;;;;;5024750;28;20042;-69
2023/09/26 00:55:56;;;;;;;11.52;9.45;;;;;;;;;;5011866;28;20045;-69
2023/09/26 00:58:23;;;;;;;11.40;9.10;;;;;;;;;;5000806;28;20415;-69
2023/09/26 01:00:55;;;;;;;12.52;9.48;;;;;;;;;;5013155;28;20042;-69
2023/09/26 01:03:21;;;;;;;11.38;9.45;;;;;;;;;;5012980;28;20061;-69
2023/09/26 01:05:47;;;;;;;10.23;9.02;;;;;;;;;;5013208;28;20029;-69
2023/09/26 01:08:13;;;;;;;12.82;8.88;;;;;;;;;;5020633;28;20048;-69
2023/09/26 01:10:39;;;;;;;10.45;9.35;;;;;;;;;;5009466;28;20033;-69
2023/09/26 01:13:05;;;;;;;11.60;9.40;;;;;;;;;;5020978;28;20048;-69
2023/09/26 01:15:32;;;;;;;10.57;9.38;;;;;;;;;;5000914;28;20037;-69
2023/09/26 01:17:58;;;;;;;10.50;8.73;;;;;;;;;;4999682;28;20300;-69
2023/09/26 01:20:24;;;;;;;11.18;8.85;;;;;;;;;;5010801;28;20230;-69
2023/09/26 01:22:51;;;;;;;12.50;9.45;;;;;;;;;;5016377;28;20420;-69
2023/09/26 01:25:17;;;;;;;11.68;9.63;;;;;;;;;;5008331;28;20112;-70
2023/09/26 01:27:43;;;;;;;10.73;8.88;;;;;;;;;;5013036;28;20551;-70
2023/09/26 01:30:11;;;;;;;11.43;9.07;;;;;;;;;;4999867;28;20046;-70
2023/09/26 01:32:37;;;;;;;11.30;8.80;;;;;;;;;;5012975;28;20042;-70
2023/09/26 01:35:04;;;;;;;10.70;9.57;;;;;;;;;;5018573;28;20088;-70
2023/09/26 01:37:30;;;;;;;13.23;9.77;;;;;;;;;;5014754;28;20038;-70
2023/09/26 01:39:56;;;;;;;13.05;9.98;;;;;;;;;;5011431;28;20045;-69
2023/09/26 01:42:22;;;;;;;13.15;10.63;;;;;;;;;;5017944;28;20112;-69
2023/09/26 01:44:48;;;;;;;12.38;10.20;;;;;;;;;;5017087;28;21441;-70
2023/09/26 01:47:21;;;;;;;15.48;10.43;;;;;;;;;;5009859;28;20053;-70
2023/09/26 01:49:47;;;;;;;11.50;9.50;;;;;;;;;;4987525;28;20058;-70
2023/09/26 01:52:13;;;;;;;13.70;9.95;;;;;;;;;;4991623;28;20538;-70
2023/09/26 01:54:39;;;;;;;11.98;9.05;;;;;;;;;;5014921;28;20092;-70
2023/09/26 01:57:06;;;;;;;10.57;9.27;;;;;;;;;;5012650;28;20038;-70
2023/09/26 01:59:34;;;;;;;11.95;9.25;;;;;;;;;;5010599;28;20045;-69
2023/09/26 02:02:02;;;;;;;11.38;10.13;;;;;;;;;;4994278;28;20046;-70
2023/09/26 02:04:28;;;;;;;12.20;10.02;;;;;;;;;;5011970;28;20046;-70
2023/09/26 02:06:54;;;;;;;11.80;10.02;;;;;;;;;;5011862;28;20432;-69
2023/09/26 02:09:24;;;;;;;12.90;10.15;;;;;;;;;;5009459;28;20079;-69
2023/09/26 02:11:50;;;;;;;12.40;10.07;;;;;;;;;;4997308;28;20061;-69
2023/09/26 02:14:16;;;;;;;12.18;10.25;;;;;;;;;;5004130;28;20038;-69
2023/09/26 02:16:42;;;;;;;13.18;10.57;;;;;;;;;;5040553;22;20113;-67
2023/09/26 02:19:09;;;;;;;11.45;9.95;;;;;;;;;;5053140;28;20120;-67
2023/09/26 02:21:35;;;;;;;10.35;8.13;;;;;;;;;;5060098;28;20047;-67
2023/09/26 02:24:01;;;;;;;10.90;9.35;;;;;;;;;;5052560;28;20383;-67
2023/09/26 02:26:26;;;;;;;12.02;8.45;;;;;;;;;;5052007;28;20159;-66
2023/09/26 02:28:52;;;;;;;16.17;8.93;;;;;;;;;;5053111;28;20398;-66
2023/09/26 02:31:18;;;;;;;10.68;9.20;;;;;;;;;;5069741;28;20052;-66
2023/09/26 02:33:45;;;;;;;12.20;10.10;;;;;;;;;;5068434;28;20028;-66
2023/09/26 02:36:11;;;;;;;10.43;9.32;;;;;;;;;;5052078;28;20036;-66
2023/09/26 02:38:37;;;;;;;11.55;9.70;;;;;;;;;;5053148;28;20116;-66
2023/09/26 02:41:02;;;;;;;11.70;9.93;;;;;;;;;;5058632;28;20116;-66
2023/09/26 02:43:28;;;;;;;13.02;10.48;;;;;;;;;;5057582;28;20510;-66
2023/09/26 02:45:54;;;;;;;11.55;10.10;;;;;;;;;;5054589;28;20037;-66
2023/09/26 02:48:20;;;;;;;12.85;10.13;;;;;;;;;;5067104;28;20041;-66
2023/09/26 02:50:46;;;;;;;11.63;10.27;;;;;;;;;;5055607;28;20032;-66
2023/09/26 02:53:12;;;;;;;13.20;10.27;;;;;;;;;;5051536;28;20037;-66
2023/09/26 02:55:41;;;;;;;13.48;10.88;;;;;;;;;;5054778;28;20060;-66
2023/09/26 02:58:07;;;;;;;12.40;11.02;;;;;;;;;;5053091;28;20037;-66
2023/09/26 03:00:33;;;;;;;13.93;11.45;;;;;;;;;;5051097;28;20036;-66
2023/09/26 03:03:00;;;;;;;14.73;11.60;;;;;;;;;;5061826;28;20029;-67
2023/09/26 03:05:26;;;;;;;14.02;11.20;;;;;;;;;;5059947;28;20044;-67
2023/09/26 03:07:52;;;;;;;14.98;10.40;;;;;;;;;;5053156;28;20029;-67
2023/09/26 03:10:18;;;;;;;13.98;10.95;;;;;;;;;;5064177;28;20041;-67
2023/09/26 03:12:44;;;;;;;13.77;10.80;;;;;;;;;;5054868;28;20036;-67
2023/09/26 03:15:11;;;;;;;13.32;10.18;;;;;;;;;;5051683;28;20037;-67
2023/09/26 03:17:37;;;;;;;13.90;10.90;;;;;;;;;;5060280;28;20399;-67
2023/09/26 03:20:08;;;;;;;14.18;10.77;;;;;;;;;;5058590;28;20390;-67
2023/09/26 03:22:34;;;;;;;13.10;11.00;;;;;;;;;;5051913;28;20072;-67
2023/09/26 03:25:00;;;;;;;12.02;10.50;;;;;;;;;;5051975;28;20045;-67
2023/09/26 03:27:26;;;;;;;11.88;9.63;;;;;;;;;;5051324;28;20467;-67
2023/09/26 03:29:52;;;;;;;11.20;9.90;;;;;;;;;;5052037;28;20390;-67
2023/09/26 03:32:18;;;;;;;11.52;10.27;;;;;;;;;;5056654;28;20044;-67
2023/09/26 03:34:44;;;;;;;12.85;9.90;;;;;;;;;;5054483;28;20090;-67
2023/09/26 03:37:10;;;;;;;13.60;11.13;;;;;;;;;;5053949;28;20045;-67
2023/09/26 03:39:36;;;;;;;15.73;11.27;;;;;;;;;;5051944;28;20055;-67
2023/09/26 03:42:02;;;;;;;15.52;11.65;;;;;;;;;;5051502;28;20120;-67
2023/09/26 03:44:28;;;;;;;12.60;10.10;;;;;;;;;;5051057;28;20044;-72
2023/09/26 03:46:54;;;;;;;13.35;10.38;;;;;;;;;;5060568;28;20071;-67
2023/09/26 03:49:20;;;;;;;11.80;10.57;;;;;;;;;;5057365;28;20041;-67
2023/09/26 03:51:46;;;;;;;12.85;10.20;;;;;;;;;;5032693;28;20421;-67
2023/09/26 03:54:12;;;;;;;12.90;9.90;;;;;;;;;;5051814;28;20044;-67
2023/09/26 03:56:38;;;;;;;11.48;9.15;;;;;;;;;;5050966;28;20051;-67
2023/09/26 03:59:04;;;;;;;11.82;9.48;;;;;;;;;;5056649;28;20033;-67
2023/09/26 04:01:30;;;;;;;12.55;9.30;;;;;;;;;;5063050;28;20040;-67
2023/09/26 04:03:56;;;;;;;10.82;9.32;;;;;;;;;;5061786;28;20502;-67
2023/09/26 04:06:22;;;;;;;8.85;7.85;;;;;;;;;;5055385;28;20036;-67
2023/09/26 04:08:48;;;;;;;12.82;9.77;;;;;;;;;;5057196;28;20037;-67
2023/09/26 04:11:14;;;;;;;15.48;10.88;;;;;;;;;;5054896;28;20036;-67
2023/09/26 04:13:41;;;;;;;13.93;9.95;;;;;;;;;;5055262;28;20067;-67
2023/09/26 04:16:07;;;;;;;13.52;9.40;;;;;;;;;;5061979;28;20041;-67
2023/09/26 04:18:33;;;;;;;11.13;9.50;;;;;;;;;;5059482;28;20052;-67
2023/09/26 04:21:04;;;;;;;10.63;9.48;;;;;;;;;;5055957;28;20037;-67
2023/09/26 04:23:30;;;;;;;13.82;9.48;;;;;;;;;;5058466;28;20065;-67
2023/09/26 04:25:56;;;;;;;12.88;9.65;;;;;;;;;;5062839;28;20041;-67
2023/09/26 04:28:22;;;;;;;12.40;9.73;;;;;;;;;;5054273;28;20110;-67
2023/09/26 04:30:48;;;;;;;14.05;10.65;;;;;;;;;;5058874;28;20487;-67
2023/09/26 04:33:14;;;;;;;13.88;10.25;;;;;;;;;;5059061;28;20053;-67
2023/09/26 04:35:40;;;;;;;12.68;10.43;;;;;;;;;;5060809;28;20045;-67
2023/09/26 04:38:06;;;;;;;12.10;10.15;;;;;;;;;;5054417;28;20406;-67
2023/09/26 04:40:33;;;;;;;14.10;10.65;;;;;;;;;;5054149;28;20183;-67
2023/09/26 04:43:00;;;;;;;12.20;10.05;;;;;;;;;;5054636;28;20040;-67
2023/09/26 04:45:29;;;;;;;14.05;11.13;;;;;;;;;;5040565;28;20051;-67
2023/09/26 04:47:57;;;;;;;11.65;10.18;;;;;;;;;;5064031;28;20049;-67
2023/09/26 04:50:23;;;;;;;12.88;9.98;;;;;;;;;;5054786;28;20036;-67
2023/09/26 04:52:49;;;;;;;13.10;10.57;;;;;;;;;;5065815;28;20090;-67
2023/09/26 04:55:15;;;;;;;12.68;10.75;;;;;;;;;;5054068;28;20037;-67
2023/09/26 04:57:44;;;;;;;12.40;10.00;;;;;;;;;;5060421;28;20041;-67
2023/09/26 05:00:11;;;;;;;15.70;10.23;;;;;;;;;;5053874;28;20032;-67
2023/09/26 05:02:37;;;;;;;13.25;10.50;;;;;;;;;;5058675;28;20036;-67
2023/09/26 05:05:06;;;;;;;13.90;10.48;;;;;;;;;;5059094;28;20087;-67
2023/09/26 05:07:32;;;;;;;14.63;11.07;;;;;;;;;;5062484;28;20036;-67
2023/09/26 05:10:00;;;;;;;12.57;9.63;;;;;;;;;;5066075;28;20502;-67
2023/09/26 05:12:26;;;;;;;14.43;9.75;;;;;;;;;;5063304;28;20044;-67
2023/09/26 05:14:52;;;;;;;12.77;9.98;;;;;;;;;;5064378;28;21810;-67
2023/09/26 05:17:21;;;;;;;13.32;10.80;;;;;;;;;;5060583;28;20041;-67
2023/09/26 05:19:47;;;;;;;12.38;9.57;;;;;;;;;;5060882;28;20032;-67
2023/09/26 05:22:13;;;;;;;12.50;9.65;;;;;;;;;;5059685;28;20037;-67
2023/09/26 05:24:39;;;;;;;16.23;10.75;;;;;;;;;;5053770;28;20040;-67
2023/09/26 05:27:06;;;;;;;12.77;10.07;;;;;;;;;;5062216;28;20041;-67
2023/09/26 05:29:35;;;;;;;12.85;10.35;;;;;;;;;;5053439;28;20119;-67
2023/09/26 05:32:01;;;;;;;11.82;9.88;;;;;;;;;;5058331;28;20040;-67
2023/09/26 05:34:28;;;;;;;17.48;9.93;;;;;;;;;;5053688;28;20116;-67
2023/09/26 05:36:54;;;;;;;16.60;10.55;;;;;;;;;;5052712;28;20072;-67
2023/09/26 05:39:20;;;;;;;12.80;10.02;;;;;;;;;;5053684;28;20486;-67
2023/09/26 05:41:46;;;;;;;14.48;10.80;;;;;;;;;;5063093;28;20033;-67
2023/09/26 05:44:12;;;;;;;12.95;10.30;;;;;;;;;;5059298;28;20497;-67
2023/09/26 05:46:38;;;;;;;13.63;10.50;;;;;;;;;;5053139;28;20033;-67
2023/09/26 05:49:04;;;;;;;15.20;9.80;;;;;;;;;;5060472;28;20114;-67
2023/09/26 05:51:30;;;;;;;12.65;9.75;;;;;;;;;;5054657;28;20062;-67
2023/09/26 05:53:56;;;;;;;12.27;10.10;;;;;;;;;;5056604;28;20037;-67
2023/09/26 05:56:22;;;;;;;12.88;10.30;;;;;;;;;;5052156;28;20037;-67
2023/09/26 05:58:49;;;;;;;13.85;10.45;;;;;;;;;;5055255;28;20025;-67
2023/09/26 06:01:15;;;;;;;13.45;10.70;;;;;;;;;;5066265;28;20041;-67
2023/09/26 06:03:41;;;;;;;13.88;9.98;;;;;;;;;;5057715;28;20029;-67
2023/09/26 06:06:07;;;;;;;15.02;10.38;;;;;;;;;;5064803;28;20040;-67
2023/09/26 06:08:34;;;;;;;13.27;10.25;;;;;;;;;;5077283;28;20185;-67
2023/09/26 06:11:00;;;;;;;12.68;10.88;;;;;;;;;;5060114;28;20048;-67
2023/09/26 06:13:26;;;;;;;13.77;10.02;;;;;;;;;;5067593;28;20039;-67
2023/09/26 06:15:52;;;;;;;12.73;10.43;;;;;;;;;;5063097;28;20032;-67
2023/09/26 06:18:18;;;;;;;14.73;10.75;;;;;;;;;;5065419;28;20067;-67
2023/09/26 06:20:45;;;;;;;13.68;10.52;;;;;;;;;;5053668;28;20231;-67
2023/09/26 06:23:12;;;;;;;12.50;9.55;;;;;;;;;;5048136;28;20052;-67
2023/09/26 06:25:38;;;;;;;13.70;10.63;;;;;;;;;;5057882;28;20403;-67
2023/09/26 06:28:04;;;;;;;12.07;9.82;;;;;;;;;;5059307;28;20044;-67
2023/09/26 06:30:30;;;;;;;16.55;11.00;;;;;;;;;;5052800;28;20048;-67
2023/09/26 06:32:56;;;;;;;15.85;10.82;;;;;;;;;;5050052;28;20050;-67
2023/09/26 06:35:22;;;;;;;14.98;11.60;;;;;;;;;;5056434;28;20036;-67
2023/09/26 06:37:48;;;;;;;14.38;10.75;;;;;;;;;;5055083;28;20379;-67
2023/09/26 06:40:14;;;;;;;15.15;10.48;;;;;;;;;;5062652;28;20041;-67
2023/09/26 06:42:40;;;;;;;13.52;10.40;;;;;;;;;;5058555;28;20597;-67
2023/09/26 06:45:06;;;;;;;13.93;10.95;;;;;;;;;;5057005;28;20052;-67
2023/09/26 06:47:33;;;;;;;14.93;10.65;;;;;;;;;;5058992;28;20533;-67
2023/09/26 06:49:59;;;;;;;13.05;10.45;;;;;;;;;;5052892;28;20080;-67
2023/09/26 06:52:25;;;;;;;13.45;10.73;;;;;;;;;;5056885;28;20074;-67
2023/09/26 06:54:51;;;;;;;13.77;10.70;;;;;;;;;;5063441;28;20466;-67
2023/09/26 06:57:20;;;;;;;11.93;10.15;;;;;;;;;;5057059;28;20055;-67
2023/09/26 06:59:52;;;;;;;17.50;10.35;;;;;;;;;;5051692;28;20037;-67
2023/09/26 07:02:19;;;;;;;14.73;10.27;;;;;;;;;;5047589;28;20482;-67
2023/09/26 07:04:46;;;;;;;17.15;11.13;;;;;;;;;;5056770;28;20081;-67
2023/09/26 07:07:12;;;;;;;17.02;10.75;;;;;;;;;;5059908;28;20048;-67
2023/09/26 07:09:39;;;;;;;13.75;11.23;;;;;;;;;;5051450;28;20510;-67
2023/09/26 07:12:05;;;;;;;13.27;10.70;;;;;;;;;;5054604;28;20041;-67
2023/09/26 07:14:35;;;;;;;14.55;10.98;;;;;;;;;;5055425;28;20044;-67
2023/09/26 07:17:02;;;;;;;13.63;11.00;;;;;;;;;;5041832;28;20057;-67
2023/09/26 07:19:34;;;;;;;12.70;10.68;;;;;;;;;;5050662;28;20032;-67
2023/09/26 07:22:00;;;;;;;13.23;10.90;;;;;;;;;;5052349;28;20037;-67
2023/09/26 07:24:26;;;;;;;15.23;11.65;;;;;;;;;;5058054;28;20399;-67
2023/09/26 07:26:52;;;;;;;14.75;11.25;;;;;;;;;;5051308;28;20133;-67
2023/09/26 07:29:18;;;;;;;14.63;10.98;;;;;;;;;;5053957;28;20037;-67
2023/09/26 07:31:45;;;;;;;15.05;11.40;;;;;;;;;;5058778;28;20029;-67
2023/09/26 07:34:11;;;;;;;14.20;11.32;;;;;;;;;;5054799;28;20115;-67
2023/09/26 07:36:37;;;;;;;14.15;11.25;;;;;;;;;;5059360;28;20423;-67
2023/09/26 07:39:04;;;;;;;13.63;10.88;;;;;;;;;;5055235;28;20052;-67
2023/09/26 07:41:30;;;;;;;15.20;11.13;;;;;;;;;;5058093;28;20112;-67
2023/09/26 07:43:56;;;;;;;14.25;11.43;;;;;;;;;;5065595;28;20040;-67
2023/09/26 07:46:22;;;;;;;15.32;11.57;;;;;;;;;;5057504;28;20033;-67
2023/09/26 07:48:49;;;;;;;13.85;11.00;;;;;;;;;;5057575;28;20127;-67
2023/09/26 07:51:16;;;;;;;17.15;11.88;;;;;;;;;;5058482;28;20052;-67
2023/09/26 07:53:42;;;;;;;13.43;10.82;;;;;;;;;;5059166;28;20036;-67
2023/09/26 07:56:10;;;;;;;17.25;12.02;;;;;;;;;;5060880;28;20487;-67
2023/09/26 07:58:36;;;;;;;14.73;11.50;;;;;;;;;;5056927;28;20045;-67
2023/09/26 08:01:06;;;;;;;12.55;10.63;;;;;;;;;;5073553;28;20038;-67
2023/09/26 08:03:32;;;;;;;15.73;11.68;;;;;;;;;;5062734;28;20170;-67
2023/09/26 08:06:02;;;;;;;13.63;11.23;;;;;;;;;;5058687;28;20043;-67
2023/09/26 08:08:31;;;;;;;14.60;10.93;;;;;;;;;;5062735;28;20036;-67
2023/09/26 08:11:05;;;;;;;14.45;11.27;;;;;;;;;;5059611;28;20083;-67
2023/09/26 08:13:32;;;;;;;15.68;11.13;;;;;;;;;;5065205;28;20047;-67
2023/09/26 08:15:58;;;;;;;15.65;11.80;;;;;;;;;;5080255;23;20084;-70
2023/09/26 08:18:24;;;;;;;13.23;11.55;;;;;;;;;;5064805;28;20519;-70
2023/09/26 08:20:55;;;;;;;13.95;11.73;;;;;;;;;;5056726;28;20494;-70
2023/09/26 08:23:21;;;;;;;13.82;11.05;;;;;;;;;;5089314;28;20050;-70
2023/09/26 08:25:47;;;;;;;13.43;10.77;;;;;;;;;;5090862;28;20036;-70
2023/09/26 08:28:13;;;;;;;14.77;11.48;;;;;;;;;;5089751;28;20098;-70
2023/09/26 08:30:40;;;;;;;15.77;11.82;;;;;;;;;;5087186;28;20036;-70
2023/09/26 08:33:05;;;;;;;14.68;11.13;;;;;;;;;;5090066;28;20044;-70
2023/09/26 08:35:32;;;;;;;16.23;11.80;;;;;;;;;;5092425;28;20033;-70
2023/09/26 08:37:58;;;;;;;14.07;10.90;;;;;;;;;;5082344;28;20396;-70
2023/09/26 08:40:25;;;;;;;15.30;10.38;;;;;;;;;;5080369;28;20032;-69
2023/09/26 08:42:52;;;;;;;14.18;11.95;;;;;;;;;;5086043;28;20504;-69
2023/09/26 08:45:18;;;;;;;14.50;11.43;;;;;;;;;;5064086;28;20091;-70
2023/09/26 08:47:45;;;;;;;14.68;11.40;;;;;;;;;;5085495;28;20497;-70
2023/09/26 08:50:11;;;;;;;14.43;11.27;;;;;;;;;;5085313;28;20043;-70
2023/09/26 08:52:37;;;;;;;14.63;10.93;;;;;;;;;;5071846;28;20401;-70
2023/09/26 08:55:03;;;;;;;14.13;11.98;;;;;;;;;;5088777;28;20538;-70
2023/09/26 08:57:31;;;;;;;14.82;10.98;;;;;;;;;;5070080;28;20178;-70
2023/09/26 09:00:00;;;;;;;13.07;10.95;;;;;;;;;;5075523;28;20496;-70
2023/09/26 09:02:26;;;;;;;15.75;11.13;;;;;;;;;;5085285;28;20043;-70
2023/09/26 09:04:52;;;;;;;14.95;11.07;;;;;;;;;;5078905;28;20036;-70
2023/09/26 09:07:18;;;;;;;13.48;10.82;;;;;;;;;;5088106;28;20050;-70
2023/09/26 09:10:03;;;;;;;12.40;10.65;;;;;;;;;;5090856;28;20044;-70
2023/09/26 09:12:29;;;;;;;15.05;10.50;;;;;;;;;;5064303;28;20118;-70
2023/09/26 09:14:55;;;;;;;15.30;10.98;;;;;;;;;;5068746;28;20244;-70
2023/09/26 09:17:21;;;;;;;13.30;10.20;;;;;;;;;;5073383;28;20047;-70
2023/09/26 09:19:48;;;;;;;13.25;10.02;;;;;;;;;;5093565;28;20024;-70
2023/09/26 09:22:18;;;;;;;11.93;9.77;;;;;;;;;;5091165;28;20110;-70
2023/09/26 09:24:44;;;;;;;12.38;10.07;;;;;;;;;;5068506;28;20078;-70
2023/09/26 09:27:10;;;;;;;12.85;10.07;;;;;;;;;;5085375;28;20119;-70
2023/09/26 09:29:36;;;;;;;12.45;9.65;;;;;;;;;;5093160;28;20111;-70
2023/09/26 09:32:02;;;;;;;11.90;9.45;;;;;;;;;;5072490;28;20052;-70
2023/09/26 09:34:28;;;;;;;11.88;9.35;;;;;;;;;;5086373;28;20044;-70
2023/09/26 09:36:57;;;;;;;11.32;9.60;;;;;;;;;;5085617;28;20052;-70
2023/09/26 09:39:23;;;;;;;13.73;9.38;;;;;;;;;;5078154;28;20040;-70
2023/09/26 09:41:49;;;;;;;13.60;9.70;;;;;;;;;;5077040;28;20043;-70
2023/09/26 09:44:15;;;;;;;13.40;9.85;;;;;;;;;;5089052;28;20036;-70
2023/09/26 09:46:43;;;;;;;13.68;10.02;;;;;;;;;;5087739;28;20036;-70
2023/09/26 09:49:13;;;;;;;11.88;8.98;;;;;;;;;;5089805;28;20028;-70
2023/09/26 09:51:45;;;;;;;11.20;9.18;;;;;;;;;;5084236;28;20040;-70
2023/09/26 09:54:17;;;;;;;11.50;9.00;;;;;;;;;;5091535;28;20040;-70
2023/09/26 09:56:46;;;;;;;13.43;9.90;;;;;;;;;;5079002;28;20035;-70
2023/09/26 09:59:14;;;;;;;10.48;9.02;;;;;;;;;;5078988;28;20047;-70
2023/09/26 10:01:44;;;;;;;11.23;9.15;;;;;;;;;;5084715;28;20040;-70
2023/09/26 10:04:10;;;;;;;11.05;9.50;;;;;;;;;;5078506;28;20040;-70
2023/09/26 10:06:36;;;;;;;12.73;9.80;;;;;;;;;;5063723;28;20032;-70
2023/09/26 10:09:03;;;;;;;12.80;9.70;;;;;;;;;;5081501;28;20036;-70
2023/09/26 10:11:30;;;;;;;12.13;10.48;;;;;;;;;;5077337;28;20036;-70
2023/09/26 10:13:58;;;;;;;14.45;10.15;;;;;;;;;;5062574;28;20046;-70
2023/09/26 10:16:25;;;;;;;12.77;8.80;;;;;;;;;;5089080;28;20382;-70
2023/09/26 10:18:51;;;;;;;11.93;9.40;;;;;;;;;;5066518;28;20087;-70
2023/09/26 10:21:21;;;;;;;12.23;10.27;;;;;;;;;;5064855;28;20040;-70
2023/09/26 10:24:08;;;;;;;12.25;9.15;;;;;;;;;;5085557;28;20111;-70
2023/09/26 10:26:34;;;;;;;11.85;9.15;;;;;;;;;;5070121;28;20109;-70
2023/09/26 10:29:06;;;;;;;11.40;9.15;;;;;;;;;;5085573;28;20089;-70
2023/09/26 10:31:33;;;;;;;12.70;9.40;;;;;;;;;;5078238;28;20044;-70
2023/09/26 10:33:59;;;;;;;12.20;9.20;;;;;;;;;;5087364;28;20032;-70
2023/09/26 10:36:25;;;;;;;11.98;10.00;;;;;;;;;;5077892;28;20047;-70
2023/09/26 10:38:59;;;;;;;12.77;10.02;;;;;;;;;;5073815;28;20036;-70
2023/09/26 10:41:25;;;;;;;12.57;10.10;;;;;;;;;;5081905;28;20093;-70
2023/09/26 10:43:51;;;;;;;12.50;9.70;;;;;;;;;;5091484;28;20040;-71
2023/09/26 10:46:18;;;;;;;12.00;10.13;;;;;;;;;;5072980;28;20051;-71
2023/09/26 10:48:44;;;;;;;14.00;9.23;;;;;;;;;;5090761;28;20035;-70
2023/09/26 10:51:10;;;;;;;13.20;9.20;;;;;;;;;;5085485;28;20088;-70
2023/09/26 10:53:36;;;;;;;12.60;8.88;;;;;;;;;;5069300;28;20121;-70
2023/09/26 10:56:03;;;;;;;11.32;8.27;;;;;;;;;;5092405;28;20480;-70
2023/09/26 10:58:33;;;;;;;14.68;7.75;;;;;;;;;;5076799;28;20028;-71
2023/09/26 11:00:59;;;;;;;12.18;8.15;;;;;;;;;;5079040;28;20047;-70
2023/09/26 11:03:25;;;;;;;11.75;7.85;;;;;;;;;;5087035;28;20032;-70
2023/09/26 11:05:51;;;;;;;8.18;7.03;;;;;;;;;;5090725;28;20036;-69
2023/09/26 11:08:18;;;;;;;12.18;7.80;;;;;;;;;;5066374;28;20504;-70
2023/09/26 11:10:48;;;;;;;11.85;7.57;;;;;;;;;;5095761;28;20047;-70
2023/09/26 11:13:15;;;;;;;9.77;7.32;;;;;;;;;;5086586;28;20551;-72
2023/09/26 11:15:44;;;;;;;10.05;7.63;;;;;;;;;;5089856;28;20044;-70
2023/09/26 11:18:15;;;;;;;9.15;7.35;;;;;;;;;;5090555;28;20040;-71
2023/09/26 11:20:41;;;;;;;11.38;7.90;;;;;;;;;;5089494;28;20477;-70
2023/09/26 11:23:07;;;;;;;10.75;7.28;;;;;;;;;;5079528;28;20115;-70
2023/09/26 11:25:33;;;;;;;9.70;7.70;;;;;;;;;;5080311;28;20042;-70
2023/09/26 11:28:00;;;;;;;9.63;7.57;;;;;;;;;;5077497;28;20097;-70
2023/09/26 11:30:26;;;;;;;11.35;8.05;;;;;;;;;;5066267;28;20056;-70
2023/09/26 11:32:55;;;;;;;11.23;8.77;;;;;;;;;;5089668;28;20447;-70
2023/09/26 11:35:22;;;;;;;10.52;7.95;;;;;;;;;;5087252;28;20108;-70
2023/09/26 11:37:49;;;;;;;9.55;7.57;;;;;;;;;;5086609;28;20607;-70
2023/09/26 11:40:21;;;;;;;10.23;7.75;;;;;;;;;;5080867;28;20110;-70
2023/09/26 11:42:51;;;;;;;11.13;7.05;;;;;;;;;;5078544;28;20556;-70
2023/09/26 11:45:24;;;;;;;8.95;6.88;;;;;;;;;;5090321;28;20043;-70
2023/09/26 11:47:52;;;;;;;10.73;7.68;;;;;;;;;;5086437;28;20036;-70
2023/09/26 11:50:18;;;;;;;7.80;6.60;;;;;;;;;;5090615;28;20048;-70
2023/09/26 11:52:44;;;;;;;13.20;7.05;;;;;;;;;;5087783;28;20043;-70
2023/09/26 11:55:14;;;;;;;9.18;6.63;;;;;;;;;;5087243;28;20048;-70
2023/09/26 11:57:39;;;;;;;11.57;7.40;;;;;;;;;;5091422;28;20120;-70
2023/09/26 12:00:11;;;;;;;9.15;6.43;;;;;;;;;;5090835;28;20068;-70
2023/09/26 12:02:38;;;;;;;9.50;7.25;;;;;;;;;;5088417;28;20078;-70
2023/09/26 12:05:06;;;;;;;11.98;7.82;;;;;;;;;;5072588;28;20044;-70
2023/09/26 12:07:33;;;;;;;12.50;7.97;;;;;;;;;;5089555;28;20044;-70
2023/09/26 12:09:59;;;;;;;8.38;7.38;;;;;;;;;;5083822;28;20040;-71
2023/09/26 12:12:25;;;;;;;10.85;7.95;;;;;;;;;;5076927;28;20055;-70
2023/09/26 12:14:52;;;;;;;10.32;6.45;;;;;;;;;;5093101;28;20071;-70
2023/09/26 12:17:18;;;;;;;9.80;6.85;;;;;;;;;;5090185;28;20048;-70
2023/09/26 12:19:44;;;;;;;10.20;7.80;;;;;;;;;;5091025;28;20415;-70
2023/09/26 12:22:10;;;;;;;9.02;6.93;;;;;;;;;;5076987;28;20127;-70
2023/09/26 12:24:36;;;;;;;9.93;6.85;;;;;;;;;;5077854;28;20046;-70
2023/09/26 12:27:03;;;;;;;7.93;6.57;;;;;;;;;;5085045;28;20575;-70
2023/09/26 12:29:30;;;;;;;9.05;6.15;;;;;;;;;;5089126;28;20047;-70
2023/09/26 12:31:56;;;;;;;8.27;6.18;;;;;;;;;;5081572;28;20490;-70
2023/09/26 12:34:22;;;;;;;7.68;6.35;;;;;;;;;;5090953;28;20036;-70
2023/09/26 12:36:49;;;;;;;9.70;6.72;;;;;;;;;;5082401;28;20492;-70
2023/09/26 12:39:15;;;;;;;8.65;6.75;;;;;;;;;;5082701;28;20107;-70
2023/09/26 12:41:41;;;;;;;7.85;6.22;;;;;;;;;;5086771;28;20119;-70
2023/09/26 12:44:08;;;;;;;9.25;6.20;;;;;;;;;;5086632;28;20520;-70
2023/09/26 12:46:34;;;;;;;8.07;6.38;;;;;;;;;;5089678;28;20524;-70
2023/09/26 12:49:00;;;;;;;8.82;6.40;;;;;;;;;;5091242;28;20897;-70
2023/09/26 12:51:28;;;;;;;8.80;6.47;;;;;;;;;;5087612;28;20138;-71
2023/09/26 12:53:54;;;;;;;8.93;6.70;;;;;;;;;;5080091;28;20037;-71
2023/09/26 12:56:20;;;;;;;9.43;6.43;;;;;;;;;;5067175;28;20128;-71
2023/09/26 12:58:46;;;;;;;8.98;6.63;;;;;;;;;;5079823;28;20119;-71
2023/09/26 13:01:12;;;;;;;8.80;7.30;;;;;;;;;;5074619;28;20028;-70
2023/09/26 13:03:38;;;;;;;11.05;7.22;;;;;;;;;;5092612;28;20072;-70
2023/09/26 13:06:04;;;;;;;8.90;7.25;;;;;;;;;;5074951;28;20101;-70
2023/09/26 13:08:30;;;;;;;8.13;6.60;;;;;;;;;;5075043;28;20044;-70
2023/09/26 13:10:56;;;;;;;9.77;6.70;;;;;;;;;;5073754;28;20044;-70
2023/09/26 13:13:22;;;;;;;9.32;6.50;;;;;;;;;;5092490;28;20393;-69
2023/09/26 13:15:48;;;;;;;8.70;6.97;;;;;;;;;;5089243;28;20036;-69
2023/09/26 13:18:14;;;;;;;8.05;6.30;;;;;;;;;;5077624;28;20051;-70
2023/09/26 13:20:40;;;;;;;8.30;7.05;;;;;;;;;;5093479;28;20477;-70
2023/09/26 13:23:05;;;;;;;9.32;6.50;;;;;;;;;;5051858;28;20043;-70
2023/09/26 13:25:31;;;;;;;8.75;6.68;;;;;;;;;;5093814;28;20086;-70
2023/09/26 13:27:57;;;;;;;9.98;6.43;;;;;;;;;;5081023;28;20047;-70
2023/09/26 13:30:26;;;;;;;9.38;6.57;;;;;;;;;;5088411;28;20401;-70
2023/09/26 13:32:52;;;;;;;6.65;6.00;;;;;;;;;;5087288;28;20051;-70
2023/09/26 13:35:18;;;;;;;9.60;7.00;;;;;;;;;;5062539;28;20041;-70
2023/09/26 13:37:44;;;;;;;12.40;6.60;;;;;;;;;;5066014;28;20102;-69
2023/09/26 13:40:10;;;;;;;8.65;5.85;;;;;;;;;;5081182;28;20036;-69
2023/09/26 13:42:36;;;;;;;8.10;5.97;;;;;;;;;;5064286;28;20477;-69
2023/09/26 13:45:03;;;;;;;7.30;5.63;;;;;;;;;;5087707;28;20035;-70
2023/09/26 13:47:29;;;;;;;7.57;5.03;;;;;;;;;;5089262;28;20040;-70
2023/09/26 13:49:55;;;;;;;7.32;5.15;;;;;;;;;;5092446;28;20516;-70
2023/09/26 13:52:20;;;;;;;9.40;5.72;;;;;;;;;;5081930;28;20033;-70
2023/09/26 13:54:48;;;;;;;7.65;5.20;;;;;;;;;;5064262;28;20465;-70
2023/09/26 13:57:14;;;;;;;9.13;5.00;;;;;;;;;;5089185;28;20040;-70
2023/09/26 13:59:40;;;;;;;8.73;5.15;;;;;;;;;;5092467;28;20035;-70
2023/09/26 14:02:06;;;;;;;6.07;5.22;;;;;;;;;;5074625;28;20532;-70
2023/09/26 14:04:32;;;;;;;10.52;5.45;;;;;;;;;;5064070;28;20056;-70
2023/09/26 14:07:00;;;;;;;7.78;5.32;;;;;;;;;;5086986;28;20040;-69
2023/09/26 14:09:26;;;;;;;10.82;6.00;;;;;;;;;;5082469;28;20048;-69
2023/09/26 14:11:52;;;;;;;7.70;4.85;;;;;;;;;;5092395;28;20036;-69
2023/09/26 14:14:18;;;;;;;9.90;5.78;;;;;;;;;;5086044;28;20036;-69
2023/09/26 14:16:46;;;;;;;7.35;5.00;;;;;;;;;;5105710;22;20108;-69
2023/09/26 14:19:12;;;;;;;6.20;4.85;;;;;;;;;;5083383;28;20072;-69
2023/09/26 14:21:38;;;;;;;9.23;4.55;;;;;;;;;;5088039;28;20521;-69
2023/09/26 14:24:05;;;;;;;9.55;5.00;;;;;;;;;;5067280;28;20071;-69